Addison, Maine
Current Conditions -  °F | °C
As of 7:15 PM on Friday 21 Nov 2014 (Local Time) from KBHB Reporting Station
Clear Clear  
Wind Chill: 14°   Ceiling: Unl
Heat Index: 25°   Visibility: 10mi
Dew Point: 12°   Wind: 12mph
Humidity: 59%   Direction: 310°NW
Pressure: 30.19"   Gusts: 21mph
Location:  44.62°N, 67.74°W
Report Text: KBHB 220015Z AUTO 31010G18KT 10SM CLR M04/M11 A3019 RMK AO1
Loading
Personal Weather Stations






























Interactive Weather Map New forecast layout! Learn more

10-Day Weather Forecast

Advertisements
Track Severe Weather on mobile